createdAt,value
2023-03-19T00:01:49.419Z,19.74
2023-03-19T00:04:15.710Z,19.73
2023-03-19T00:06:42.058Z,19.69
2023-03-19T00:09:08.348Z,19.67
2023-03-19T00:11:34.641Z,19.67
2023-03-19T00:14:00.947Z,19.66
2023-03-19T00:16:27.398Z,19.64
2023-03-19T00:18:54.017Z,19.63
2023-03-19T00:21:20.353Z,19.61
2023-03-19T00:23:46.749Z,19.60
2023-03-19T00:26:13.139Z,19.57
2023-03-19T00:28:39.434Z,19.56
2023-03-19T00:31:05.829Z,19.54
2023-03-19T00:33:32.171Z,19.53
2023-03-19T00:35:58.585Z,19.51
2023-03-19T00:38:24.975Z,19.49
2023-03-19T00:40:51.392Z,19.48
2023-03-19T00:43:17.701Z,19.46
2023-03-19T00:45:44.252Z,19.46
2023-03-19T00:48:10.609Z,19.44
2023-03-19T00:50:37.080Z,19.43
2023-03-19T00:53:03.622Z,19.42
2023-03-19T00:55:29.997Z,19.41
2023-03-19T00:57:56.306Z,19.42
2023-03-19T01:00:23.255Z,19.40
2023-03-19T01:02:49.876Z,19.40
2023-03-19T01:05:16.346Z,19.37
2023-03-19T01:07:42.680Z,19.36
2023-03-19T01:10:08.996Z,19.36
2023-03-19T01:12:35.348Z,19.34
2023-03-19T01:15:01.687Z,19.32
2023-03-19T01:17:28.028Z,19.29
2023-03-19T01:19:54.360Z,19.27
2023-03-19T01:22:20.673Z,19.27
2023-03-19T01:24:47.117Z,19.26
2023-03-19T01:27:13.459Z,19.25
2023-03-19T01:29:39.811Z,19.23
2023-03-19T01:32:06.216Z,19.23
2023-03-19T01:34:32.772Z,19.22
2023-03-19T01:36:59.164Z,19.21
2023-03-19T01:39:25.819Z,19.18
2023-03-19T01:41:52.180Z,19.18
2023-03-19T01:44:18.558Z,19.16
2023-03-19T01:46:45.071Z,19.17
2023-03-19T01:49:11.720Z,19.15
2023-03-19T01:51:38.347Z,19.16
2023-03-19T01:54:04.695Z,19.16
2023-03-19T01:56:31.070Z,19.16
2023-03-19T01:58:57.498Z,19.15
2023-03-19T02:01:24.037Z,19.13
2023-03-19T02:03:50.437Z,19.07
2023-03-19T02:06:16.758Z,19.14
2023-03-19T02:08:43.077Z,19.12
2023-03-19T02:11:09.532Z,19.11
2023-03-19T02:13:35.815Z,19.11
2023-03-19T02:16:02.209Z,19.10
2023-03-19T02:18:29.733Z,19.13
2023-03-19T02:20:56.106Z,19.17
2023-03-19T02:23:22.527Z,19.21
2023-03-19T02:25:48.786Z,19.21
2023-03-19T02:28:15.202Z,19.20
2023-03-19T02:30:41.533Z,19.19
2023-03-19T02:33:07.866Z,19.17
2023-03-19T02:35:34.299Z,19.17
2023-03-19T02:38:00.630Z,19.16
2023-03-19T02:40:26.944Z,19.13
2023-03-19T02:42:53.158Z,19.09
2023-03-19T02:45:19.448Z,19.06
2023-03-19T02:47:45.760Z,19.05
2023-03-19T02:50:12.060Z,19.02
2023-03-19T02:52:38.463Z,18.99
2023-03-19T02:55:05.094Z,18.98
2023-03-19T02:57:31.492Z,18.96
2023-03-19T02:59:57.826Z,18.94
2023-03-19T03:02:24.226Z,18.93
2023-03-19T03:04:50.654Z,18.91
2023-03-19T03:07:17.057Z,18.90
2023-03-19T03:09:43.415Z,18.89
2023-03-19T03:12:09.732Z,18.87
2023-03-19T03:14:36.036Z,18.86
2023-03-19T03:17:02.372Z,18.85
2023-03-19T03:19:28.790Z,18.83
2023-03-19T03:21:55.213Z,18.83
2023-03-19T03:24:21.491Z,18.81
2023-03-19T03:26:48.219Z,18.80
2023-03-19T03:29:14.929Z,18.80
2023-03-19T03:31:41.338Z,18.80
2023-03-19T03:34:07.678Z,18.80
2023-03-19T03:36:34.097Z,18.78
2023-03-19T03:39:00.396Z,18.77
2023-03-19T03:41:26.921Z,18.76
2023-03-19T03:43:56.415Z,18.74
2023-03-19T03:46:22.717Z,18.73
2023-03-19T03:48:49.131Z,18.72
2023-03-19T03:51:15.797Z,18.70
2023-03-19T03:53:42.264Z,18.68
2023-03-19T03:56:08.584Z,18.67
2023-03-19T03:58:36.572Z,18.65
2023-03-19T04:01:03.216Z,18.63
2023-03-19T04:03:29.616Z,18.62
2023-03-19T04:05:57.131Z,18.61
2023-03-19T04:08:23.502Z,18.58
2023-03-19T04:10:49.783Z,18.56
2023-03-19T04:13:16.019Z,18.54
2023-03-19T04:15:42.342Z,18.52
2023-03-19T04:18:08.668Z,18.50
2023-03-19T04:20:35.356Z,18.49
2023-03-19T04:23:05.045Z,18.48
2023-03-19T04:25:31.487Z,18.47
2023-03-19T04:27:57.894Z,18.45
2023-03-19T04:30:24.221Z,18.44
2023-03-19T04:32:50.521Z,18.43
2023-03-19T04:35:16.971Z,18.42
2023-03-19T04:37:43.325Z,18.41
2023-03-19T04:40:09.728Z,18.39
2023-03-19T04:42:36.149Z,18.37
2023-03-19T04:45:02.566Z,18.35
2023-03-19T04:47:28.947Z,18.34
2023-03-19T04:49:55.479Z,18.32
2023-03-19T04:52:21.863Z,18.30
2023-03-19T04:54:48.266Z,18.29
2023-03-19T04:57:14.584Z,18.28
2023-03-19T04:59:40.935Z,18.26
2023-03-19T05:02:07.303Z,18.25
2023-03-19T05:04:33.697Z,18.23
2023-03-19T05:07:00.043Z,18.22
2023-03-19T05:09:26.476Z,18.21
2023-03-19T05:11:52.948Z,18.21
2023-03-19T05:14:19.259Z,18.20
2023-03-19T05:16:45.575Z,18.20
2023-03-19T05:19:12.303Z,18.20
2023-03-19T05:21:38.775Z,18.20
2023-03-19T05:24:05.103Z,18.19
2023-03-19T05:26:31.377Z,18.17
2023-03-19T05:28:58.021Z,18.17
2023-03-19T05:31:24.341Z,18.17
2023-03-19T05:33:50.915Z,18.16
2023-03-19T05:36:17.251Z,18.16
2023-03-19T05:38:43.506Z,18.16
2023-03-19T05:41:09.785Z,18.15
2023-03-19T05:43:36.064Z,18.14
2023-03-19T05:46:02.478Z,18.12
2023-03-19T05:48:28.864Z,18.12
2023-03-19T05:50:55.092Z,18.11
2023-03-19T05:53:21.346Z,18.12
2023-03-19T05:55:47.698Z,18.11
2023-03-19T05:58:14.017Z,18.11
2023-03-19T06:00:40.293Z,18.12
2023-03-19T06:03:06.669Z,18.13
2023-03-19T06:05:33.022Z,18.13
2023-03-19T06:07:59.477Z,18.13
2023-03-19T06:10:25.781Z,18.12
2023-03-19T06:12:52.127Z,18.11
2023-03-19T06:15:18.379Z,18.11
2023-03-19T06:17:44.693Z,18.10
2023-03-19T06:20:10.969Z,18.09
2023-03-19T06:22:37.480Z,18.09
2023-03-19T06:25:03.848Z,18.08
2023-03-19T06:27:30.451Z,18.06
2023-03-19T06:29:58.953Z,18.07
2023-03-19T06:32:25.272Z,18.05
2023-03-19T06:34:51.572Z,18.06
2023-03-19T06:37:17.849Z,18.05
2023-03-19T06:39:44.168Z,18.04
2023-03-19T06:42:10.474Z,18.02
2023-03-19T06:44:38.237Z,18.01
2023-03-19T06:47:04.842Z,17.99
2023-03-19T06:49:31.493Z,17.98
2023-03-19T06:51:58.106Z,17.98
2023-03-19T06:54:24.627Z,17.98
2023-03-19T06:56:51.183Z,17.98
2023-03-19T06:59:17.536Z,17.99
2023-03-19T07:01:44.230Z,18.00
2023-03-19T07:04:10.949Z,18.00
2023-03-19T07:06:37.678Z,18.00
2023-03-19T07:09:04.268Z,18.01
2023-03-19T07:11:30.618Z,18.02
2023-03-19T07:13:57.050Z,18.06
2023-03-19T07:16:23.558Z,18.09
2023-03-19T07:18:50.178Z,18.16
2023-03-19T07:21:26.665Z,18.26
2023-03-19T07:23:53.295Z,18.49
2023-03-19T07:26:19.657Z,18.96
2023-03-19T07:28:48.725Z,19.30
2023-03-19T07:31:16.355Z,19.43
2023-03-19T07:33:43.252Z,19.24
2023-03-19T07:36:13.430Z,19.23
2023-03-19T07:38:40.269Z,19.31
2023-03-19T07:41:07.063Z,19.41
2023-03-19T07:43:33.829Z,19.73
2023-03-19T07:46:00.441Z,20.32
2023-03-19T07:48:29.936Z,20.67
2023-03-19T07:50:56.276Z,20.96
2023-03-19T07:53:32.942Z,21.15
2023-03-19T07:56:04.164Z,21.29
2023-03-19T07:58:30.674Z,21.29
2023-03-19T08:00:57.742Z,21.13
2023-03-19T08:03:31.238Z,21.26
2023-03-19T08:05:58.485Z,21.39
2023-03-19T08:08:32.205Z,21.49
2023-03-19T08:10:58.765Z,21.59
2023-03-19T08:13:25.476Z,21.68
2023-03-19T08:15:52.031Z,21.72
2023-03-19T08:18:18.874Z,21.86
2023-03-19T08:20:45.522Z,21.69
2023-03-19T08:23:12.210Z,21.56
2023-03-19T08:25:38.647Z,21.65
2023-03-19T08:28:05.016Z,21.59
2023-03-19T08:30:31.766Z,21.55
2023-03-19T08:33:02.542Z,21.68
2023-03-19T08:35:29.068Z,21.74
2023-03-19T08:37:55.633Z,21.74
2023-03-19T08:40:22.246Z,21.90
2023-03-19T08:42:48.535Z,22.23
2023-03-19T08:45:15.046Z,22.56
2023-03-19T08:47:41.365Z,23.05
2023-03-19T08:50:07.749Z,23.03
2023-03-19T08:52:34.128Z,22.80
2023-03-19T08:55:00.630Z,22.41
2023-03-19T08:57:27.061Z,22.20
2023-03-19T08:59:53.614Z,22.15
2023-03-19T09:02:20.231Z,22.17
2023-03-19T09:04:46.943Z,22.22
2023-03-19T09:07:13.549Z,22.37
2023-03-19T09:09:40.094Z,22.58
2023-03-19T09:12:06.840Z,22.58
2023-03-19T09:14:33.770Z,22.47
2023-03-19T09:17:00.469Z,22.59
2023-03-19T09:19:27.910Z,22.72
2023-03-19T09:21:54.435Z,22.69
2023-03-19T09:24:20.827Z,22.55
2023-03-19T09:26:47.586Z,22.45
2023-03-19T09:29:13.907Z,22.42
2023-03-19T09:31:40.302Z,22.40
2023-03-19T09:34:06.726Z,22.38
2023-03-19T09:36:32.983Z,22.38
2023-03-19T09:38:59.258Z,22.40
2023-03-19T09:41:25.550Z,22.44
2023-03-19T09:43:51.808Z,22.49
2023-03-19T09:46:19.487Z,22.55
2023-03-19T09:48:46.927Z,22.58
2023-03-19T09:51:13.265Z,22.59
2023-03-19T09:53:39.554Z,22.60
2023-03-19T09:56:05.986Z,22.62
2023-03-19T09:58:32.297Z,22.63
2023-03-19T10:00:58.621Z,22.65
2023-03-19T10:03:24.948Z,22.66
2023-03-19T10:05:51.269Z,22.68
2023-03-19T10:08:17.676Z,22.70
2023-03-19T10:10:43.993Z,22.70
2023-03-19T10:13:10.378Z,22.72
2023-03-19T10:15:36.963Z,22.73
2023-03-19T10:18:03.607Z,22.76
2023-03-19T10:20:30.149Z,22.77
2023-03-19T10:22:56.496Z,22.80
2023-03-19T10:25:22.775Z,22.82
2023-03-19T10:27:49.241Z,22.85
2023-03-19T10:30:15.691Z,22.86
2023-03-19T10:32:42.169Z,22.87
2023-03-19T10:35:08.675Z,22.88
2023-03-19T10:37:34.998Z,22.93
2023-03-19T10:40:01.519Z,22.92
2023-03-19T10:42:27.905Z,22.85
2023-03-19T10:44:54.481Z,22.78
2023-03-19T10:47:20.937Z,22.69
2023-03-19T10:49:47.424Z,22.61
2023-03-19T10:52:13.726Z,22.51
2023-03-19T10:54:40.315Z,22.44
2023-03-19T10:57:06.760Z,22.37
2023-03-19T10:59:33.186Z,22.34
2023-03-19T11:01:59.536Z,22.31
2023-03-19T11:04:25.820Z,22.34
2023-03-19T11:06:52.122Z,22.37
2023-03-19T11:09:18.480Z,22.32
2023-03-19T11:11:44.812Z,22.32
2023-03-19T11:14:11.103Z,22.26
2023-03-19T11:16:37.549Z,22.21
2023-03-19T11:19:04.238Z,22.18
2023-03-19T11:21:30.986Z,22.20
2023-03-19T11:23:57.302Z,22.24
2023-03-19T11:26:23.610Z,22.23
2023-03-19T11:28:49.924Z,22.25
2023-03-19T11:31:17.304Z,22.26
2023-03-19T11:33:43.728Z,22.30
2023-03-19T11:36:10.333Z,22.35
2023-03-19T11:38:36.673Z,22.45
2023-03-19T11:41:03.030Z,22.50
2023-03-19T11:43:29.336Z,22.48
2023-03-19T11:45:55.863Z,22.38
2023-03-19T11:48:22.275Z,22.31
2023-03-19T11:50:48.670Z,22.25
2023-03-19T11:53:14.978Z,22.19
2023-03-19T11:55:41.354Z,22.22
2023-03-19T11:58:07.782Z,22.16
2023-03-19T12:00:34.090Z,22.08
2023-03-19T12:03:00.393Z,22.03
2023-03-19T12:05:26.762Z,21.97
2023-03-19T12:07:53.347Z,21.94
2023-03-19T12:10:19.668Z,21.94
2023-03-19T12:12:45.936Z,21.93
2023-03-19T12:15:12.307Z,21.90
2023-03-19T12:17:38.699Z,21.90
2023-03-19T12:20:05.034Z,21.88
2023-03-19T12:22:35.076Z,21.88
2023-03-19T12:25:01.550Z,21.89
2023-03-19T12:27:27.907Z,21.92
2023-03-19T12:29:54.389Z,21.90
2023-03-19T12:32:20.756Z,21.87
2023-03-19T12:34:47.341Z,21.83
2023-03-19T12:37:13.655Z,21.82
2023-03-19T12:39:39.940Z,21.97
2023-03-19T12:42:06.288Z,22.15
2023-03-19T12:44:32.809Z,22.27
2023-03-19T12:46:59.615Z,22.35
2023-03-19T12:49:26.010Z,22.36
2023-03-19T12:51:52.409Z,22.40
2023-03-19T12:54:18.658Z,22.40
2023-03-19T12:56:45.157Z,22.40
2023-03-19T12:59:11.570Z,22.40
2023-03-19T13:01:38.109Z,22.39
2023-03-19T13:04:04.541Z,22.39
2023-03-19T13:06:30.906Z,22.38
2023-03-19T13:08:57.226Z,22.39
2023-03-19T13:11:23.560Z,22.40
2023-03-19T13:13:49.934Z,22.43
2023-03-19T13:16:16.379Z,22.45
2023-03-19T13:18:42.776Z,22.47
2023-03-19T13:21:09.058Z,22.48
2023-03-19T13:23:35.453Z,22.47
2023-03-19T13:26:01.786Z,22.45
2023-03-19T13:28:28.401Z,22.44
2023-03-19T13:30:54.812Z,22.43
2023-03-19T13:33:21.122Z,22.41
2023-03-19T13:35:47.572Z,22.39
2023-03-19T13:38:13.910Z,22.38
2023-03-19T13:40:40.367Z,22.37
2023-03-19T13:43:13.082Z,22.37
2023-03-19T13:45:45.193Z,22.37
2023-03-19T13:48:23.857Z,22.37
2023-03-19T13:50:50.955Z,22.38
2023-03-19T13:53:17.331Z,22.39
2023-03-19T13:55:43.621Z,22.42
2023-03-19T13:58:09.968Z,22.45
2023-03-19T14:00:36.622Z,22.46
2023-03-19T14:03:03.187Z,22.49
2023-03-19T14:05:29.559Z,22.51
2023-03-19T14:07:56.018Z,22.52
2023-03-19T14:10:22.421Z,22.56
2023-03-19T14:12:48.709Z,22.58
2023-03-19T14:15:17.369Z,22.58
2023-03-19T14:17:44.094Z,22.58
2023-03-19T14:20:12.317Z,22.56
2023-03-19T14:22:38.972Z,22.54
2023-03-19T14:25:06.111Z,22.54
2023-03-19T14:27:32.864Z,22.55
2023-03-19T14:30:00.829Z,22.53
2023-03-19T14:32:27.456Z,22.53
2023-03-19T14:34:53.796Z,22.52
2023-03-19T14:37:20.118Z,22.50
2023-03-19T14:39:46.414Z,22.50
2023-03-19T14:42:12.734Z,22.51
2023-03-19T14:44:39.063Z,22.51
2023-03-19T14:47:05.459Z,22.50
2023-03-19T14:49:31.822Z,22.50
2023-03-19T14:51:58.128Z,22.51
2023-03-19T14:54:24.440Z,22.50
2023-03-19T14:56:50.873Z,22.50
2023-03-19T14:59:17.206Z,22.50
2023-03-19T15:01:43.550Z,22.50
2023-03-19T15:04:09.859Z,22.47
2023-03-19T15:06:36.151Z,22.47
2023-03-19T15:09:02.559Z,22.45
2023-03-19T15:11:28.886Z,22.45
2023-03-19T15:13:55.294Z,22.43
2023-03-19T15:16:21.800Z,22.43
2023-03-19T15:18:48.506Z,22.41
2023-03-19T15:21:14.881Z,22.40
2023-03-19T15:23:41.210Z,22.39
2023-03-19T15:26:07.665Z,22.38
2023-03-19T15:28:34.258Z,22.38
2023-03-19T15:31:12.900Z,22.37
2023-03-19T15:33:47.586Z,22.35
2023-03-19T15:36:14.112Z,22.36
2023-03-19T15:38:40.448Z,22.36
2023-03-19T15:41:07.072Z,22.36
2023-03-19T15:43:34.062Z,22.37
2023-03-19T15:46:00.476Z,22.37
2023-03-19T15:48:29.975Z,22.37
2023-03-19T15:50:56.305Z,22.36
2023-03-19T15:53:22.801Z,22.35
2023-03-19T15:55:49.278Z,22.37
2023-03-19T15:58:15.583Z,22.35
2023-03-19T16:00:42.165Z,22.32
2023-03-19T16:03:08.751Z,22.32
2023-03-19T16:05:35.091Z,22.30
2023-03-19T16:08:01.559Z,22.28
2023-03-19T16:10:28.140Z,22.27
2023-03-19T16:12:54.416Z,22.25
2023-03-19T16:15:20.814Z,22.24
2023-03-19T16:17:47.178Z,22.22
2023-03-19T16:20:13.576Z,22.21
2023-03-19T16:22:39.866Z,22.20
2023-03-19T16:25:06.158Z,22.19
2023-03-19T16:27:32.462Z,22.18
2023-03-19T16:29:58.734Z,22.16
2023-03-19T16:32:25.088Z,22.14
2023-03-19T16:34:51.601Z,22.12
2023-03-19T16:37:18.020Z,22.12
2023-03-19T16:39:44.359Z,22.10
2023-03-19T16:42:10.869Z,22.08
2023-03-19T16:44:37.174Z,22.06
2023-03-19T16:47:03.542Z,22.03
2023-03-19T16:49:29.907Z,22.04
2023-03-19T16:51:56.493Z,22.01
2023-03-19T16:54:23.006Z,22.00
2023-03-19T16:56:49.407Z,21.98
2023-03-19T16:59:16.236Z,21.96
2023-03-19T17:01:42.700Z,21.94
2023-03-19T17:04:09.036Z,21.92
2023-03-19T17:06:35.421Z,21.90
2023-03-19T17:09:01.772Z,21.90
2023-03-19T17:11:28.080Z,21.90
2023-03-19T17:13:54.762Z,21.88
2023-03-19T17:16:21.274Z,21.87
2023-03-19T17:18:47.774Z,21.86
2023-03-19T17:21:14.149Z,21.86
2023-03-19T17:23:40.444Z,21.86
2023-03-19T17:26:06.981Z,21.84
2023-03-19T17:28:33.421Z,21.83
2023-03-19T17:30:59.690Z,21.83
2023-03-19T17:33:26.030Z,21.82
2023-03-19T17:35:52.371Z,21.81
2023-03-19T17:38:18.861Z,21.80
2023-03-19T17:40:45.209Z,21.79
2023-03-19T17:43:11.672Z,21.78
2023-03-19T17:45:38.129Z,21.77
2023-03-19T17:48:04.465Z,21.75
2023-03-19T17:50:30.790Z,21.75
2023-03-19T17:52:57.098Z,21.73
2023-03-19T17:55:23.380Z,21.72
2023-03-19T17:57:49.731Z,21.71
2023-03-19T18:00:16.092Z,21.70
2023-03-19T18:02:42.457Z,21.68
2023-03-19T18:05:08.725Z,21.68
2023-03-19T18:07:34.998Z,21.67
2023-03-19T18:10:01.325Z,21.66
2023-03-19T18:12:27.727Z,21.65
2023-03-19T18:14:54.035Z,21.64
2023-03-19T18:17:20.362Z,21.61
2023-03-19T18:19:46.716Z,21.61
2023-03-19T18:22:13.065Z,21.58
2023-03-19T18:24:39.357Z,21.59
2023-03-19T18:27:05.672Z,21.58
2023-03-19T18:29:32.129Z,21.56
2023-03-19T18:31:58.560Z,21.55
2023-03-19T18:34:24.897Z,21.54
2023-03-19T18:36:51.296Z,21.53
2023-03-19T18:39:17.637Z,21.51
2023-03-19T18:41:43.980Z,21.50
2023-03-19T18:44:10.317Z,21.49
2023-03-19T18:46:36.625Z,21.48
2023-03-19T18:49:02.990Z,21.47
2023-03-19T18:51:29.685Z,21.45
2023-03-19T18:53:56.081Z,21.43
2023-03-19T18:56:22.689Z,21.43
2023-03-19T18:58:49.078Z,21.42
2023-03-19T19:01:15.567Z,21.40
2023-03-19T19:03:41.911Z,21.41
2023-03-19T19:06:08.524Z,21.40
2023-03-19T19:08:34.840Z,21.40
2023-03-19T19:11:01.161Z,21.40
2023-03-19T19:13:27.603Z,21.40
2023-03-19T19:15:54.011Z,21.41
2023-03-19T19:18:20.402Z,21.40
2023-03-19T19:20:46.742Z,21.39
2023-03-19T19:23:13.349Z,21.40
2023-03-19T19:25:39.710Z,21.40
2023-03-19T19:28:06.000Z,21.40
2023-03-19T19:30:32.535Z,21.40
2023-03-19T19:32:59.009Z,21.39
2023-03-19T19:35:25.397Z,21.39
2023-03-19T19:37:51.729Z,21.39
2023-03-19T19:40:18.338Z,21.39
2023-03-19T19:42:44.705Z,21.39
2023-03-19T19:45:11.021Z,21.37
2023-03-19T19:47:37.330Z,21.37
2023-03-19T19:50:03.598Z,21.36
2023-03-19T19:52:31.750Z,21.35
2023-03-19T19:54:58.496Z,21.35
2023-03-19T19:57:25.143Z,21.34
2023-03-19T19:59:51.539Z,21.33
2023-03-19T20:02:20.729Z,21.33
2023-03-19T20:04:47.091Z,21.33
2023-03-19T20:07:13.426Z,21.31
2023-03-19T20:09:39.762Z,21.31
2023-03-19T20:12:06.038Z,21.31
2023-03-19T20:14:32.392Z,21.29
2023-03-19T20:16:58.717Z,21.29
2023-03-19T20:19:24.977Z,21.28
2023-03-19T20:21:51.268Z,21.27
2023-03-19T20:24:17.636Z,21.27
2023-03-19T20:26:44.194Z,21.26
2023-03-19T20:29:10.495Z,21.25
2023-03-19T20:31:36.861Z,21.25
2023-03-19T20:34:03.189Z,21.24
2023-03-19T20:36:29.578Z,21.23
2023-03-19T20:38:55.909Z,21.20
2023-03-19T20:41:22.217Z,21.20
2023-03-19T20:43:48.602Z,21.19
2023-03-19T20:46:14.985Z,21.18
2023-03-19T20:48:42.545Z,21.16
2023-03-19T20:51:08.980Z,21.16
2023-03-19T20:53:35.332Z,21.15
2023-03-19T20:56:01.681Z,21.15
2023-03-19T20:58:28.014Z,21.14
2023-03-19T21:00:54.813Z,21.14
2023-03-19T21:03:21.891Z,21.13
2023-03-19T21:05:48.786Z,21.13
2023-03-19T21:08:15.818Z,21.13
2023-03-19T21:10:42.293Z,21.13
2023-03-19T21:13:08.777Z,21.13
2023-03-19T21:15:35.442Z,21.13
2023-03-19T21:18:02.062Z,21.11
2023-03-19T21:20:28.539Z,21.10
2023-03-19T21:22:54.894Z,21.10
2023-03-19T21:25:21.182Z,21.09
2023-03-19T21:27:47.488Z,21.09
2023-03-19T21:30:13.929Z,21.09
2023-03-19T21:32:40.962Z,21.07
2023-03-19T21:35:07.654Z,21.07
2023-03-19T21:37:34.128Z,21.06
2023-03-19T21:40:00.551Z,21.05
2023-03-19T21:42:27.076Z,21.05
2023-03-19T21:44:53.547Z,21.04
2023-03-19T21:47:19.999Z,21.04
2023-03-19T21:49:46.345Z,21.03
2023-03-19T21:52:12.791Z,21.03
2023-03-19T21:54:39.130Z,21.02
2023-03-19T21:57:05.498Z,21.02
2023-03-19T21:59:31.892Z,21.01
2023-03-19T22:01:58.174Z,20.99
2023-03-19T22:04:24.695Z,20.99
2023-03-19T22:06:51.474Z,20.98
2023-03-19T22:09:19.036Z,20.97
2023-03-19T22:11:45.452Z,20.96
2023-03-19T22:14:11.752Z,20.94
2023-03-19T22:16:38.104Z,20.94
2023-03-19T22:19:04.448Z,20.94
2023-03-19T22:21:30.824Z,20.93
2023-03-19T22:23:57.092Z,20.90
2023-03-19T22:26:23.414Z,20.92
2023-03-19T22:28:49.702Z,20.90
2023-03-19T22:31:15.935Z,20.90
2023-03-19T22:33:42.315Z,20.88
2023-03-19T22:36:08.776Z,20.88
2023-03-19T22:38:35.318Z,20.87
2023-03-19T22:41:01.829Z,20.86
2023-03-19T22:43:28.175Z,20.84
2023-03-19T22:45:54.602Z,20.85
2023-03-19T22:48:21.035Z,20.84
2023-03-19T22:50:47.493Z,20.83
2023-03-19T22:53:14.017Z,20.82
2023-03-19T22:55:40.634Z,20.82
2023-03-19T22:58:10.314Z,20.80
2023-03-19T23:00:36.608Z,20.79
2023-03-19T23:03:03.025Z,20.78
2023-03-19T23:05:29.650Z,20.78
2023-03-19T23:07:56.399Z,20.77
2023-03-19T23:10:22.863Z,20.76
2023-03-19T23:12:49.256Z,20.77
2023-03-19T23:18:23.018Z,20.68
2023-03-19T23:24:04.917Z,20.54
2023-03-19T23:26:32.069Z,20.48
2023-03-19T23:28:58.831Z,20.44
2023-03-19T23:31:25.619Z,20.40
2023-03-19T23:33:51.973Z,20.35
2023-03-19T23:36:18.305Z,20.31
2023-03-19T23:38:44.939Z,20.27
2023-03-19T23:41:11.318Z,20.24
2023-03-19T23:43:37.755Z,20.20
2023-03-19T23:46:04.116Z,20.15
2023-03-19T23:48:31.526Z,20.10
2023-03-19T23:50:57.843Z,20.07
2023-03-19T23:53:24.210Z,20.02
2023-03-19T23:55:50.522Z,19.99
2023-03-19T23:58:18.170Z,19.95
